sensor_id;sensor_type;location;lat;lon;timestamp;pressure;altitude;pressure_sealevel;temperature;humidity
74633;BME280;63139;52.018;8.552;2023-06-22T00:00:30;100822.25;;;18.00;80.63
74633;BME280;63139;52.018;8.552;2023-06-22T00:02:58;100820.81;;;17.98;80.60
74633;BME280;63139;52.018;8.552;2023-06-22T00:05:28;100815.84;;;18.01;79.97
74633;BME280;63139;52.018;8.552;2023-06-22T00:07:56;100822.66;;;18.04;79.31
74633;BME280;63139;52.018;8.552;2023-06-22T00:10:23;100816.25;;;18.05;79.40
74633;BME280;63139;52.018;8.552;2023-06-22T00:12:51;100819.56;;;18.07;79.42
74633;BME280;63139;52.018;8.552;2023-06-22T00:15:19;100801.41;;;18.09;79.43
74633;BME280;63139;52.018;8.552;2023-06-22T00:17:47;100800.16;;;18.11;78.97
74633;BME280;63139;52.018;8.552;2023-06-22T00:20:15;100807.19;;;18.12;78.48
74633;BME280;63139;52.018;8.552;2023-06-22T00:22:45;100801.81;;;18.12;78.09
74633;BME280;63139;52.018;8.552;2023-06-22T00:25:14;100801.00;;;18.12;77.91
74633;BME280;63139;52.018;8.552;2023-06-22T00:27:42;100800.59;;;18.15;76.92
74633;BME280;63139;52.018;8.552;2023-06-22T00:30:11;100791.72;;;18.14;76.50
74633;BME280;63139;52.018;8.552;2023-06-22T00:32:39;100788.59;;;18.17;76.32
74633;BME280;63139;52.018;8.552;2023-06-22T00:35:07;100791.91;;;18.19;76.07
74633;BME280;63139;52.018;8.552;2023-06-22T00:37:39;100790.88;;;18.20;75.97
74633;BME280;63139;52.018;8.552;2023-06-22T00:40:10;100796.84;;;18.22;75.68
74633;BME280;63139;52.018;8.552;2023-06-22T00:42:40;100793.13;;;18.23;75.76
74633;BME280;63139;52.018;8.552;2023-06-22T00:45:08;100795.38;;;18.27;75.69
74633;BME280;63139;52.018;8.552;2023-06-22T00:47:37;100793.13;;;18.30;75.65
74633;BME280;63139;52.018;8.552;2023-06-22T00:50:07;100782.78;;;18.34;75.37
74633;BME280;63139;52.018;8.552;2023-06-22T00:52:36;100768.97;;;18.37;75.28
74633;BME280;63139;52.018;8.552;2023-06-22T00:55:12;100773.06;;;18.39;75.05
74633;BME280;63139;52.018;8.552;2023-06-22T00:57:41;100772.22;;;18.45;74.87
74633;BME280;63139;52.018;8.552;2023-06-22T01:00:10;100775.72;;;18.46;74.87
74633;BME280;63139;52.018;8.552;2023-06-22T01:02:46;100785.41;;;18.47;74.69
74633;BME280;63139;52.018;8.552;2023-06-22T01:05:19;100776.34;;;18.48;74.97
74633;BME280;63139;52.018;8.552;2023-06-22T01:07:58;100777.16;;;18.48;75.32
74633;BME280;63139;52.018;8.552;2023-06-22T01:10:36;100767.88;;;18.51;75.08
74633;BME280;63139;52.018;8.552;2023-06-22T01:13:14;100769.53;;;18.52;75.48
74633;BME280;63139;52.018;8.552;2023-06-22T01:15:45;100773.03;;;18.52;75.30
74633;BME280;63139;52.018;8.552;2023-06-22T01:18:18;100774.06;;;18.51;75.28
74633;BME280;63139;52.018;8.552;2023-06-22T01:20:47;100776.75;;;18.51;75.21
74633;BME280;63139;52.018;8.552;2023-06-22T01:23:24;100777.78;;;18.50;75.83
74633;BME280;63139;52.018;8.552;2023-06-22T01:26:04;100777.16;;;18.48;76.33
74633;BME280;63139;52.018;8.552;2023-06-22T01:28:45;100779.22;;;18.46;76.32
74633;BME280;63139;52.018;8.552;2023-06-22T01:31:16;100782.94;;;18.45;75.77
74633;BME280;63139;52.018;8.552;2023-06-22T01:33:49;100779.88;;;18.42;75.81
74633;BME280;63139;52.018;8.552;2023-06-22T01:36:18;100779.25;;;18.40;76.29
74633;BME280;63139;52.018;8.552;2023-06-22T01:38:47;100782.38;;;18.37;76.38
74633;BME280;63139;52.018;8.552;2023-06-22T01:41:19;100791.44;;;18.36;76.77
74633;BME280;63139;52.018;8.552;2023-06-22T01:43:49;100783.63;;;18.34;77.07
74633;BME280;63139;52.018;8.552;2023-06-22T01:46:19;100774.75;;;18.34;77.07
74633;BME280;63139;52.018;8.552;2023-06-22T01:48:48;100774.75;;;18.34;77.33
74633;BME280;63139;52.018;8.552;2023-06-22T01:51:16;100773.09;;;18.33;77.59
74633;BME280;63139;52.018;8.552;2023-06-22T01:53:44;100778.47;;;18.33;77.60
74633;BME280;63139;52.018;8.552;2023-06-22T01:56:17;100784.03;;;18.31;78.00
74633;BME280;63139;52.018;8.552;2023-06-22T01:58:49;100781.34;;;18.31;78.02
74633;BME280;63139;52.018;8.552;2023-06-22T02:01:25;100776.81;;;18.32;78.21
74633;BME280;63139;52.018;8.552;2023-06-22T02:04:02;100778.66;;;18.31;78.73
74633;BME280;63139;52.018;8.552;2023-06-22T02:06:34;100771.69;;;18.30;78.41
74633;BME280;63139;52.018;8.552;2023-06-22T02:09:08;100772.72;;;18.29;79.10
74633;BME280;63139;52.018;8.552;2023-06-22T02:11:40;100775.81;;;18.26;78.87
74633;BME280;63139;52.018;8.552;2023-06-22T02:14:10;100778.69;;;18.24;78.89
74633;BME280;63139;52.018;8.552;2023-06-22T02:16:40;100786.94;;;18.23;79.27
74633;BME280;63139;52.018;8.552;2023-06-22T02:19:09;100785.72;;;18.19;79.66
74633;BME280;63139;52.018;8.552;2023-06-22T02:21:37;100793.75;;;18.19;79.81
74633;BME280;63139;52.018;8.552;2023-06-22T02:24:05;100789.88;;;18.15;80.02
74633;BME280;63139;52.018;8.552;2023-06-22T02:26:33;100793.78;;;18.12;80.65
74633;BME280;63139;52.018;8.552;2023-06-22T02:29:01;100790.28;;;18.12;81.19
74633;BME280;63139;52.018;8.552;2023-06-22T02:31:31;100790.69;;;18.09;80.77
74633;BME280;63139;52.018;8.552;2023-06-22T02:33:59;100786.38;;;18.08;81.09
74633;BME280;63139;52.018;8.552;2023-06-22T02:36:27;100785.31;;;18.09;81.33
74633;BME280;63139;52.018;8.552;2023-06-22T02:38:59;100786.16;;;18.09;81.36
74633;BME280;63139;52.018;8.552;2023-06-22T02:41:29;100794.81;;;18.11;81.47
74633;BME280;63139;52.018;8.552;2023-06-22T02:43:57;100790.28;;;18.12;81.39
74633;BME280;63139;52.018;8.552;2023-06-22T02:46:25;100790.91;;;18.14;82.00
74633;BME280;63139;52.018;8.552;2023-06-22T02:48:54;100792.31;;;18.16;81.92
74633;BME280;63139;52.018;8.552;2023-06-22T02:51:22;100789.44;;;18.18;81.83
74633;BME280;63139;52.018;8.552;2023-06-22T02:53:50;100796.25;;;18.20;81.79
74633;BME280;63139;52.018;8.552;2023-06-22T02:56:19;100790.88;;;18.20;82.00
74633;BME280;63139;52.018;8.552;2023-06-22T02:58:55;100793.34;;;18.22;81.79
74633;BME280;63139;52.018;8.552;2023-06-22T03:01:31;100791.69;;;18.21;83.63
74633;BME280;63139;52.018;8.552;2023-06-22T03:04:06;100794.38;;;18.21;82.00
74633;BME280;63139;52.018;8.552;2023-06-22T03:06:35;100803.25;;;18.21;81.79
74633;BME280;63139;52.018;8.552;2023-06-22T03:09:04;100801.41;;;18.22;81.79
74633;BME280;63139;52.018;8.552;2023-06-22T03:11:34;100796.03;;;18.22;81.78
74633;BME280;63139;52.018;8.552;2023-06-22T03:14:02;100789.03;;;18.21;81.89
74633;BME280;63139;52.018;8.552;2023-06-22T03:16:30;100792.09;;;18.18;82.09
74633;BME280;63139;52.018;8.552;2023-06-22T03:18:59;100791.50;;;18.16;82.06
74633;BME280;63139;52.018;8.552;2023-06-22T03:21:29;100794.59;;;18.13;82.29
74633;BME280;63139;52.018;8.552;2023-06-22T03:23:59;100792.53;;;18.08;81.97
74633;BME280;63139;52.018;8.552;2023-06-22T03:26:27;100789.25;;;18.06;82.06
74633;BME280;63139;52.018;8.552;2023-06-22T03:28:56;100789.66;;;18.03;82.24
74633;BME280;63139;52.018;8.552;2023-06-22T03:31:24;100784.31;;;18.03;82.45
74633;BME280;63139;52.018;8.552;2023-06-22T03:33:52;100786.16;;;18.03;82.93
74633;BME280;63139;52.018;8.552;2023-06-22T03:36:22;100782.88;;;18.07;82.65
74633;BME280;63139;52.018;8.552;2023-06-22T03:38:51;100790.06;;;18.13;82.63
74633;BME280;63139;52.018;8.552;2023-06-22T03:41:19;100790.66;;;18.22;82.16
74633;BME280;63139;52.018;8.552;2023-06-22T03:43:48;100793.13;;;18.30;82.39
74633;BME280;63139;52.018;8.552;2023-06-22T03:46:16;100794.97;;;18.36;82.11
74633;BME280;63139;52.018;8.552;2023-06-22T03:48:44;100787.91;;;18.42;81.85
74633;BME280;63139;52.018;8.552;2023-06-22T03:51:12;100788.50;;;18.50;81.54
74633;BME280;63139;52.018;8.552;2023-06-22T03:53:40;100785.00;;;18.56;81.60
74633;BME280;63139;52.018;8.552;2023-06-22T03:56:09;100788.69;;;18.62;81.41
74633;BME280;63139;52.018;8.552;2023-06-22T03:58:37;100785.38;;;18.67;81.10
74633;BME280;63139;52.018;8.552;2023-06-22T04:01:09;100778.75;;;18.69;81.05
74633;BME280;63139;52.018;8.552;2023-06-22T04:03:38;100778.13;;;18.74;80.72
74633;BME280;63139;52.018;8.552;2023-06-22T04:06:07;100779.16;;;18.73;81.00
74633;BME280;63139;52.018;8.552;2023-06-22T04:08:35;100792.38;;;18.74;80.82
74633;BME280;63139;52.018;8.552;2023-06-22T04:11:02;100779.53;;;18.76;80.88
74633;BME280;63139;52.018;8.552;2023-06-22T04:13:32;100778.94;;;18.74;80.89
74633;BME280;63139;52.018;8.552;2023-06-22T04:16:00;100791.91;;;18.77;80.68
74633;BME280;63139;52.018;8.552;2023-06-22T04:18:28;100791.88;;;18.84;80.51
74633;BME280;63139;52.018;8.552;2023-06-22T04:20:56;100794.53;;;18.90;80.18
74633;BME280;63139;52.018;8.552;2023-06-22T04:23:24;100794.28;;;18.98;79.80
74633;BME280;63139;52.018;8.552;2023-06-22T04:25:52;100797.69;;;19.12;79.21
74633;BME280;63139;52.018;8.552;2023-06-22T04:28:20;100792.28;;;19.25;78.68
74633;BME280;63139;52.018;8.552;2023-06-22T04:30:49;100779.13;;;19.49;78.08
74633;BME280;63139;52.018;8.552;2023-06-22T04:33:17;100792.16;;;19.70;77.02
74633;BME280;63139;52.018;8.552;2023-06-22T04:35:45;100794.09;;;20.06;75.83
74633;BME280;63139;52.018;8.552;2023-06-22T04:38:13;100801.56;;;20.04;76.07
74633;BME280;63139;52.018;8.552;2023-06-22T04:40:41;100788.66;;;20.12;75.90
74633;BME280;63139;52.018;8.552;2023-06-22T04:43:09;100789.50;;;20.49;74.62
74633;BME280;63139;52.018;8.552;2023-06-22T04:45:37;100780.75;;;20.54;74.35
74633;BME280;63139;52.018;8.552;2023-06-22T04:48:06;100773.56;;;20.48;74.56
74633;BME280;63139;52.018;8.552;2023-06-22T04:50:36;100783.50;;;20.47;74.19
74633;BME280;63139;52.018;8.552;2023-06-22T04:53:05;100780.00;;;20.47;74.05
74633;BME280;63139;52.018;8.552;2023-06-22T04:55:34;100777.69;;;20.50;74.12
74633;BME280;63139;52.018;8.552;2023-06-22T04:58:04;100782.59;;;20.53;73.91
74633;BME280;63139;52.018;8.552;2023-06-22T05:00:32;100787.91;;;20.60;73.88
74633;BME280;63139;52.018;8.552;2023-06-22T05:03:02;100784.41;;;20.60;73.93
74633;BME280;63139;52.018;8.552;2023-06-22T05:05:45;100788.06;;;20.65;73.82
74633;BME280;63139;52.018;8.552;2023-06-22T05:08:13;100787.16;;;20.71;73.67
74633;BME280;63139;52.018;8.552;2023-06-22T05:10:41;100781.81;;;20.83;73.07
74633;BME280;63139;52.018;8.552;2023-06-22T05:13:29;100777.34;;;21.07;72.40
74633;BME280;63139;52.018;8.552;2023-06-22T05:15:56;100776.59;;;21.18;71.88
74633;BME280;63139;52.018;8.552;2023-06-22T05:18:28;100777.09;;;21.26;71.61
74633;BME280;63139;52.018;8.552;2023-06-22T05:20:58;100772.97;;;21.24;71.22
74633;BME280;63139;52.018;8.552;2023-06-22T05:23:26;100768.66;;;21.35;71.16
74633;BME280;63139;52.018;8.552;2023-06-22T05:25:54;100767.84;;;21.46;70.73
74633;BME280;63139;52.018;8.552;2023-06-22T05:28:24;100764.69;;;21.72;70.03
74633;BME280;63139;52.018;8.552;2023-06-22T05:30:52;100767.41;;;21.84;69.80
74633;BME280;63139;52.018;8.552;2023-06-22T05:33:20;100770.22;;;21.89;69.74
74633;BME280;63139;52.018;8.552;2023-06-22T05:35:48;100764.81;;;21.89;69.54
74633;BME280;63139;52.018;8.552;2023-06-22T05:38:17;100764.00;;;21.88;69.14
74633;BME280;63139;52.018;8.552;2023-06-22T05:40:45;100759.78;;;21.81;69.41
74633;BME280;63139;52.018;8.552;2023-06-22T05:43:12;100764.94;;;21.82;69.25
74633;BME280;63139;52.018;8.552;2023-06-22T05:45:41;100774.44;;;21.85;69.01
74633;BME280;63139;52.018;8.552;2023-06-22T05:48:08;100766.47;;;21.90;68.78
74633;BME280;63139;52.018;8.552;2023-06-22T05:50:36;100768.13;;;22.14;68.08
74633;BME280;63139;52.018;8.552;2023-06-22T05:53:04;100766.63;;;22.46;67.56
74633;BME280;63139;52.018;8.552;2023-06-22T05:55:34;100764.91;;;22.80;66.78
74633;BME280;63139;52.018;8.552;2023-06-22T05:58:02;100762.66;;;22.89;66.46
74633;BME280;63139;52.018;8.552;2023-06-22T06:00:31;100769.31;;;23.15;65.44
74633;BME280;63139;52.018;8.552;2023-06-22T06:03:00;100765.88;;;23.36;64.78
74633;BME280;63139;52.018;8.552;2023-06-22T06:05:30;100760.19;;;23.49;64.29
74633;BME280;63139;52.018;8.552;2023-06-22T06:07:59;100761.06;;;23.72;63.70
74633;BME280;63139;52.018;8.552;2023-06-22T06:10:27;100759.44;;;24.09;62.61
74633;BME280;63139;52.018;8.552;2023-06-22T06:12:58;100766.28;;;24.33;61.83
74633;BME280;63139;52.018;8.552;2023-06-22T06:15:28;100769.94;;;24.44;61.96
74633;BME280;63139;52.018;8.552;2023-06-22T06:17:56;100767.88;;;24.51;62.08
74633;BME280;63139;52.018;8.552;2023-06-22T06:20:25;100770.44;;;24.63;61.84
74633;BME280;63139;52.018;8.552;2023-06-22T06:22:55;100767.84;;;24.73;61.76
74633;BME280;63139;52.018;8.552;2023-06-22T06:25:23;100769.19;;;24.97;60.66
74633;BME280;63139;52.018;8.552;2023-06-22T06:27:52;100774.22;;;25.10;59.98
74633;BME280;63139;52.018;8.552;2023-06-22T06:30:22;100776.53;;;25.29;59.66
74633;BME280;63139;52.018;8.552;2023-06-22T06:32:50;100774.22;;;25.42;59.04
74633;BME280;63139;52.018;8.552;2023-06-22T06:35:18;100765.88;;;25.49;58.52
74633;BME280;63139;52.018;8.552;2023-06-22T06:37:48;100767.72;;;25.75;58.20
74633;BME280;63139;52.018;8.552;2023-06-22T06:40:18;100778.75;;;26.01;57.93
74633;BME280;63139;52.018;8.552;2023-06-22T06:42:47;100765.53;;;26.19;57.16
74633;BME280;63139;52.018;8.552;2023-06-22T06:45:17;100766.69;;;26.28;56.61
74633;BME280;63139;52.018;8.552;2023-06-22T06:47:46;100746.88;;;26.28;56.41
74633;BME280;63139;52.018;8.552;2023-06-22T06:50:15;100748.25;;;26.31;56.27
74633;BME280;63139;52.018;8.552;2023-06-22T06:52:43;100750.97;;;26.36;56.21
74633;BME280;63139;52.018;8.552;2023-06-22T06:55:11;100758.56;;;26.28;56.35
74633;BME280;63139;52.018;8.552;2023-06-22T06:57:41;100758.47;;;26.18;56.86
74633;BME280;63139;52.018;8.552;2023-06-22T07:00:11;100760.59;;;26.11;57.29
74633;BME280;63139;52.018;8.552;2023-06-22T07:02:42;100755.09;;;26.01;57.11
74633;BME280;63139;52.018;8.552;2023-06-22T07:05:12;100763.22;;;25.91;57.59
74633;BME280;63139;52.018;8.552;2023-06-22T07:07:40;100757.16;;;25.79;57.61
74633;BME280;63139;52.018;8.552;2023-06-22T07:10:09;100753.53;;;25.63;58.28
74633;BME280;63139;52.018;8.552;2023-06-22T07:12:37;100760.72;;;25.47;58.77
74633;BME280;63139;52.018;8.552;2023-06-22T07:15:06;100766.75;;;25.28;59.44
74633;BME280;63139;52.018;8.552;2023-06-22T07:17:35;100764.44;;;25.09;59.14
74633;BME280;63139;52.018;8.552;2023-06-22T07:20:04;100757.75;;;24.90;59.31
74633;BME280;63139;52.018;8.552;2023-06-22T07:22:40;100754.13;;;24.85;59.54
74633;BME280;63139;52.018;8.552;2023-06-22T07:25:09;100753.78;;;24.76;59.56
74633;BME280;63139;52.018;8.552;2023-06-22T07:27:37;100751.03;;;24.71;60.34
74633;BME280;63139;52.018;8.552;2023-06-22T07:30:07;100759.03;;;24.61;60.40
74633;BME280;63139;52.018;8.552;2023-06-22T07:32:35;100754.09;;;24.53;60.59
74633;BME280;63139;52.018;8.552;2023-06-22T07:35:04;100755.03;;;24.42;60.84
74633;BME280;63139;52.018;8.552;2023-06-22T07:37:33;100747.84;;;24.30;61.68
74633;BME280;63139;52.018;8.552;2023-06-22T07:40:04;100746.22;;;24.29;61.82
74633;BME280;63139;52.018;8.552;2023-06-22T07:42:33;100746.47;;;24.28;61.50
74633;BME280;63139;52.018;8.552;2023-06-22T07:45:04;100740.53;;;24.31;61.59
74633;BME280;63139;52.018;8.552;2023-06-22T07:47:34;100744.69;;;24.38;61.58
74633;BME280;63139;52.018;8.552;2023-06-22T07:50:03;100753.44;;;24.46;61.51
74633;BME280;63139;52.018;8.552;2023-06-22T07:52:31;100748.00;;;24.46;61.64
74633;BME280;63139;52.018;8.552;2023-06-22T07:54:59;100743.69;;;24.45;61.34
74633;BME280;63139;52.018;8.552;2023-06-22T07:57:30;100735.88;;;24.48;61.21
74633;BME280;63139;52.018;8.552;2023-06-22T08:00:01;100737.88;;;24.58;61.08
74633;BME280;63139;52.018;8.552;2023-06-22T08:02:38;100739.78;;;24.57;61.42
74633;BME280;63139;52.018;8.552;2023-06-22T08:05:07;100738.63;;;24.53;61.32
74633;BME280;63139;52.018;8.552;2023-06-22T08:07:46;100732.47;;;24.58;61.65
74633;BME280;63139;52.018;8.552;2023-06-22T08:10:15;100734.72;;;24.66;61.84
74633;BME280;63139;52.018;8.552;2023-06-22T08:12:45;100728.03;;;24.73;61.72
74633;BME280;63139;52.018;8.552;2023-06-22T08:15:15;100730.06;;;24.88;61.08
74633;BME280;63139;52.018;8.552;2023-06-22T08:17:44;100735.34;;;25.00;60.93
74633;BME280;63139;52.018;8.552;2023-06-22T08:20:12;100740.34;;;25.13;61.16
74633;BME280;63139;52.018;8.552;2023-06-22T08:22:41;100743.66;;;25.20;60.68
74633;BME280;63139;52.018;8.552;2023-06-22T08:25:10;100737.75;;;25.28;60.65
74633;BME280;63139;52.018;8.552;2023-06-22T08:27:39;100738.44;;;25.40;60.46
74633;BME280;63139;52.018;8.552;2023-06-22T08:30:09;100726.09;;;25.60;60.00
74633;BME280;63139;52.018;8.552;2023-06-22T08:32:38;100715.50;;;26.05;59.21
74633;BME280;63139;52.018;8.552;2023-06-22T08:35:07;100709.72;;;26.49;58.60
74633;BME280;63139;52.018;8.552;2023-06-22T08:37:36;100700.31;;;26.92;57.79
74633;BME280;63139;52.018;8.552;2023-06-22T08:40:07;100694.88;;;27.27;56.79
74633;BME280;63139;52.018;8.552;2023-06-22T08:42:39;100693.22;;;27.36;56.34
74633;BME280;63139;52.018;8.552;2023-06-22T08:45:10;100691.59;;;27.61;55.23
74633;BME280;63139;52.018;8.552;2023-06-22T08:47:38;100694.81;;;27.78;55.31
74633;BME280;63139;52.018;8.552;2023-06-22T08:50:07;100696.38;;;27.94;55.04
74633;BME280;63139;52.018;8.552;2023-06-22T08:52:35;100690.34;;;28.12;54.76
74633;BME280;63139;52.018;8.552;2023-06-22T08:55:04;100690.25;;;28.38;54.25
74633;BME280;63139;52.018;8.552;2023-06-22T08:57:32;100696.41;;;28.53;53.73
74633;BME280;63139;52.018;8.552;2023-06-22T09:00:00;100702.66;;;28.59;53.77
74633;BME280;63139;52.018;8.552;2023-06-22T09:02:33;100693.09;;;28.62;53.68
74633;BME280;63139;52.018;8.552;2023-06-22T09:05:03;100683.56;;;28.59;53.37
74633;BME280;63139;52.018;8.552;2023-06-22T09:07:31;100684.72;;;28.53;53.67
74633;BME280;63139;52.018;8.552;2023-06-22T09:10:00;100680.03;;;28.58;53.55
74633;BME280;63139;52.018;8.552;2023-06-22T09:12:31;100668.75;;;28.75;52.92
74633;BME280;63139;52.018;8.552;2023-06-22T09:15:01;100668.47;;;28.82;52.76
74633;BME280;63139;52.018;8.552;2023-06-22T09:17:30;100658.56;;;28.47;53.17
74633;BME280;63139;52.018;8.552;2023-06-22T09:19:59;100653.44;;;28.40;53.17
74633;BME280;63139;52.018;8.552;2023-06-22T09:22:27;100650.72;;;28.40;53.07
74633;BME280;63139;52.018;8.552;2023-06-22T09:24:55;100647.66;;;28.52;52.86
74633;BME280;63139;52.018;8.552;2023-06-22T09:27:23;100653.91;;;28.52;52.18
74633;BME280;63139;52.018;8.552;2023-06-22T09:29:52;100655.66;;;28.77;52.44
74633;BME280;63139;52.018;8.552;2023-06-22T09:32:19;100650.34;;;28.96;51.75
74633;BME280;63139;52.018;8.552;2023-06-22T09:34:47;100660.19;;;29.21;51.14
74633;BME280;63139;52.018;8.552;2023-06-22T09:37:17;100655.47;;;29.31;50.72
74633;BME280;63139;52.018;8.552;2023-06-22T09:39:45;100651.53;;;29.43;50.02
74633;BME280;63139;52.018;8.552;2023-06-22T09:42:12;100646.69;;;29.40;49.91
74633;BME280;63139;52.018;8.552;2023-06-22T09:44:40;100647.28;;;29.31;50.50
74633;BME280;63139;52.018;8.552;2023-06-22T09:47:08;100649.94;;;29.42;49.36
74633;BME280;63139;52.018;8.552;2023-06-22T09:49:36;100649.25;;;29.55;48.68
74633;BME280;63139;52.018;8.552;2023-06-22T09:52:14;100649.00;;;29.75;48.95
74633;BME280;63139;52.018;8.552;2023-06-22T09:54:43;100643.06;;;29.92;47.77
74633;BME280;63139;52.018;8.552;2023-06-22T09:57:11;100639.34;;;30.06;48.06
74633;BME280;63139;52.018;8.552;2023-06-22T09:59:39;100625.88;;;29.91;48.58
74633;BME280;63139;52.018;8.552;2023-06-22T10:02:07;100635.16;;;29.66;48.84
74633;BME280;63139;52.018;8.552;2023-06-22T10:04:35;100628.09;;;29.42;49.46
74633;BME280;63139;52.018;8.552;2023-06-22T10:07:04;100622.41;;;29.09;50.42
74633;BME280;63139;52.018;8.552;2023-06-22T10:09:32;100630.84;;;28.79;51.35
74633;BME280;63139;52.018;8.552;2023-06-22T10:12:02;100631.47;;;28.61;51.99
74633;BME280;63139;52.018;8.552;2023-06-22T10:14:30;100628.69;;;28.37;52.74
74633;BME280;63139;52.018;8.552;2023-06-22T10:16:58;100626.31;;;28.20;52.48
74633;BME280;63139;52.018;8.552;2023-06-22T10:19:29;100624.69;;;28.19;52.85
74633;BME280;63139;52.018;8.552;2023-06-22T10:21:56;100618.38;;;28.24;52.97
74633;BME280;63139;52.018;8.552;2023-06-22T10:24:24;100627.03;;;28.36;52.99
74633;BME280;63139;52.018;8.552;2023-06-22T10:26:52;100628.81;;;28.55;52.56
74633;BME280;63139;52.018;8.552;2023-06-22T10:29:21;100630.84;;;28.79;51.80
74633;BME280;63139;52.018;8.552;2023-06-22T10:31:49;100638.22;;;29.07;51.30
74633;BME280;63139;52.018;8.552;2023-06-22T10:34:17;100621.06;;;29.36;50.49
74633;BME280;63139;52.018;8.552;2023-06-22T10:36:45;100620.25;;;29.59;50.53
74633;BME280;63139;52.018;8.552;2023-06-22T10:39:15;100620.31;;;29.54;49.89
74633;BME280;63139;52.018;8.552;2023-06-22T10:41:43;100613.34;;;29.43;50.26
74633;BME280;63139;52.018;8.552;2023-06-22T10:44:11;100597.13;;;29.51;50.67
74633;BME280;63139;52.018;8.552;2023-06-22T10:46:41;100596.84;;;29.53;50.13
74633;BME280;63139;52.018;8.552;2023-06-22T10:49:09;100603.16;;;29.24;50.79
74633;BME280;63139;52.018;8.552;2023-06-22T10:51:38;100584.25;;;29.04;51.87
74633;BME280;63139;52.018;8.552;2023-06-22T10:54:05;100579.84;;;28.79;52.74
74633;BME280;63139;52.018;8.552;2023-06-22T10:56:34;100582.13;;;28.62;52.06
74633;BME280;63139;52.018;8.552;2023-06-22T10:59:02;100581.09;;;28.58;51.93
74633;BME280;63139;52.018;8.552;2023-06-22T11:01:29;100569.34;;;28.63;51.58
74633;BME280;63139;52.018;8.552;2023-06-22T11:04:03;100566.59;;;28.63;51.55
74633;BME280;63139;52.018;8.552;2023-06-22T11:06:31;100569.53;;;28.71;51.52
74633;BME280;63139;52.018;8.552;2023-06-22T11:08:59;100567.13;;;28.65;51.20
74633;BME280;63139;52.018;8.552;2023-06-22T11:11:48;100553.25;;;28.95;50.46
74633;BME280;63139;52.018;8.552;2023-06-22T11:14:16;100550.31;;;29.15;49.54
74633;BME280;63139;52.018;8.552;2023-06-22T11:16:44;100543.81;;;29.35;49.26
74633;BME280;63139;52.018;8.552;2023-06-22T11:19:17;100547.63;;;29.58;48.88
74633;BME280;63139;52.018;8.552;2023-06-22T11:21:45;100544.06;;;29.81;48.74
74633;BME280;63139;52.018;8.552;2023-06-22T11:24:13;100539.38;;;30.05;47.91
74633;BME280;63139;52.018;8.552;2023-06-22T11:26:42;100525.91;;;30.28;47.61
74633;BME280;63139;52.018;8.552;2023-06-22T11:29:10;100527.44;;;30.53;47.61
74633;BME280;63139;52.018;8.552;2023-06-22T11:31:57;100520.84;;;30.54;48.47
74633;BME280;63139;52.018;8.552;2023-06-22T11:34:28;100521.69;;;30.35;47.80
74633;BME280;63139;52.018;8.552;2023-06-22T11:36:56;100523.13;;;29.95;48.98
74633;BME280;63139;52.018;8.552;2023-06-22T11:39:24;100516.41;;;30.06;49.50
74633;BME280;63139;52.018;8.552;2023-06-22T11:42:08;100513.16;;;30.23;48.57
74633;BME280;63139;52.018;8.552;2023-06-22T11:44:37;100524.63;;;30.06;47.00
74633;BME280;63139;52.018;8.552;2023-06-22T11:47:05;100506.66;;;30.19;46.74
74633;BME280;63139;52.018;8.552;2023-06-22T11:49:34;100499.59;;;30.32;47.18
74633;BME280;63139;52.018;8.552;2023-06-22T11:52:02;100492.47;;;30.17;47.72
74633;BME280;63139;52.018;8.552;2023-06-22T11:54:30;100490.84;;;30.16;48.04
74633;BME280;63139;52.018;8.552;2023-06-22T11:56:58;100486.13;;;29.84;48.28
74633;BME280;63139;52.018;8.552;2023-06-22T11:59:26;100480.00;;;29.92;48.73
74633;BME280;63139;52.018;8.552;2023-06-22T12:01:54;100470.47;;;29.90;48.53
74633;BME280;63139;52.018;8.552;2023-06-22T12:04:22;100482.16;;;29.95;48.45
74633;BME280;63139;52.018;8.552;2023-06-22T12:06:51;100467.22;;;29.88;48.82
74633;BME280;63139;52.018;8.552;2023-06-22T12:09:19;100471.28;;;29.90;48.50
74633;BME280;63139;52.018;8.552;2023-06-22T12:11:46;100466.81;;;29.99;47.90
74633;BME280;63139;52.018;8.552;2023-06-22T12:14:14;100478.31;;;30.15;48.25
74633;BME280;63139;52.018;8.552;2023-06-22T12:16:42;100483.41;;;30.03;47.93
74633;BME280;63139;52.018;8.552;2023-06-22T12:19:11;100490.16;;;29.87;48.83
74633;BME280;63139;52.018;8.552;2023-06-22T12:21:39;100487.28;;;29.59;48.91
74633;BME280;63139;52.018;8.552;2023-06-22T12:24:08;100491.16;;;29.34;49.82
74633;BME280;63139;52.018;8.552;2023-06-22T12:26:36;100499.56;;;28.90;50.54
74633;BME280;63139;52.018;8.552;2023-06-22T12:29:04;100510.25;;;28.58;51.13
74633;BME280;63139;52.018;8.552;2023-06-22T12:31:32;100523.09;;;28.18;51.58
74633;BME280;63139;52.018;8.552;2023-06-22T12:34:00;100522.63;;;28.01;52.34
74633;BME280;63139;52.018;8.552;2023-06-22T12:36:28;100526.06;;;27.73;52.87
74633;BME280;63139;52.018;8.552;2023-06-22T12:38:56;100526.22;;;27.37;54.83
74633;BME280;63139;52.018;8.552;2023-06-22T12:41:25;100523.59;;;27.07;55.95
74633;BME280;63139;52.018;8.552;2023-06-22T12:43:53;100525.53;;;26.76;56.38
74633;BME280;63139;52.018;8.552;2023-06-22T12:46:21;100517.94;;;26.58;57.14
74633;BME280;63139;52.018;8.552;2023-06-22T12:48:49;100532.06;;;26.40;58.56
74633;BME280;63139;52.018;8.552;2023-06-22T12:51:20;100522.81;;;26.15;58.98
74633;BME280;63139;52.018;8.552;2023-06-22T12:53:49;100520.84;;;25.96;59.39
74633;BME280;63139;52.018;8.552;2023-06-22T12:56:17;100509.97;;;25.75;60.05
74633;BME280;63139;52.018;8.552;2023-06-22T12:58:46;100498.56;;;25.68;60.75
74633;BME280;63139;52.018;8.552;2023-06-22T13:01:14;100500.97;;;25.65;61.24